Terminal Aerodrome Forecast
Issued by NWS Charleston, WV

Current Version | Previous Version | Text Only | Print | Product List | Glossary Off
Versions: 1 2 3 4 5 6 7 8 9 10 11 12 13 14 15 16 17 18 19 20 21 22 23 24 25 26

000
FTUS41 KRLX 011252 AAA
TAFEKN
TAF AMD
KEKN 011252Z 0113/0212 VRB02KT P6SM BKN025 BKN040
      TEMPO 0115/0116 SCT025
     FM011600 27005KT P6SM SCT040
     FM012000 29009KT P6SM SCT050
     FM012300 31004KT P6SM FEW050
     FM020800 00000KT 5SM BR FEW040
     FM021000 00000KT 1SM BR SCT001=

USA.gov is the U.S. government's official web portal to all federal, state and local government web resources and services.